createdAt,value
2022-11-30T00:00:41.716Z,60.92
2022-11-30T00:02:14.589Z,67.43
2022-11-30T00:03:47.415Z,61.05
2022-11-30T00:05:20.254Z,63.28
2022-11-30T00:06:56.744Z,61.95
2022-11-30T00:08:29.462Z,66.40
2022-11-30T00:10:02.158Z,60.17
2022-11-30T00:11:34.887Z,62.13
2022-11-30T00:13:09.496Z,62.10
2022-11-30T00:14:42.244Z,60.30
2022-11-30T00:16:14.496Z,59.97
2022-11-30T00:17:48.195Z,53.17
2022-11-30T00:19:20.936Z,66.25
2022-11-30T00:20:52.711Z,60.60
2022-11-30T00:22:25.464Z,51.58
2022-11-30T00:23:58.228Z,61.88
2022-11-30T00:25:30.972Z,57.95
2022-11-30T00:27:03.710Z,65.50
2022-11-30T00:28:38.062Z,63.95
2022-11-30T00:30:11.747Z,58.17
2022-11-30T00:31:44.482Z,60.20
2022-11-30T00:33:17.195Z,57.65
2022-11-30T00:34:49.973Z,69.63
2022-11-30T00:36:23.556Z,59.90
2022-11-30T00:37:56.251Z,58.75
2022-11-30T00:39:33.995Z,63.33
2022-11-30T00:41:08.189Z,58.20
2022-11-30T00:42:41.003Z,54.85
2022-11-30T00:44:15.061Z,57.13
2022-11-30T00:45:47.983Z,60.83
2022-11-30T00:47:20.788Z,57.72
2022-11-30T00:48:53.548Z,52.38
2022-11-30T00:50:26.297Z,64.03
2022-11-30T00:51:59.029Z,58.80
2022-11-30T00:53:31.928Z,56.47
2022-11-30T00:55:04.926Z,60.75
2022-11-30T00:56:37.657Z,72.65
2022-11-30T00:58:10.436Z,67.45
2022-11-30T00:59:44.554Z,73.47
2022-11-30T01:01:17.288Z,70.18
2022-11-30T01:02:50.110Z,74.20
2022-11-30T01:04:22.972Z,73.80
2022-11-30T01:05:55.741Z,72.53
2022-11-30T01:07:28.511Z,74.75
2022-11-30T01:09:02.853Z,67.78
2022-11-30T01:10:35.495Z,70.60
2022-11-30T01:12:08.456Z,66.97
2022-11-30T01:13:41.224Z,69.20
2022-11-30T01:15:14.415Z,70.30
2022-11-30T01:16:49.732Z,67.25
2022-11-30T01:18:26.085Z,67.35
2022-11-30T01:19:58.799Z,68.90
2022-11-30T01:21:32.486Z,66.65
2022-11-30T01:23:04.425Z,73.57
2022-11-30T01:24:37.147Z,75.38
2022-11-30T01:26:10.387Z,74.80
2022-11-30T01:27:43.120Z,74.45
2022-11-30T01:29:15.855Z,67.38
2022-11-30T01:30:57.964Z,68.95
2022-11-30T01:32:30.763Z,66.18
2022-11-30T01:34:03.696Z,70.32
2022-11-30T01:35:35.469Z,67.65
2022-11-30T01:37:08.194Z,62.13
2022-11-30T01:38:42.472Z,62.38
2022-11-30T01:40:15.306Z,63.95
2022-11-30T01:41:48.053Z,65.28
2022-11-30T01:43:20.312Z,65.70
2022-11-30T01:44:57.452Z,70.55
2022-11-30T01:46:35.757Z,67.70
2022-11-30T01:48:10.024Z,66.43
2022-11-30T01:49:46.977Z,65.25
2022-11-30T01:51:18.995Z,70.05
2022-11-30T01:52:55.023Z,75.20
2022-11-30T01:54:33.974Z,68.53
2022-11-30T01:56:07.518Z,73.22
2022-11-30T01:57:43.476Z,73.18
2022-11-30T01:59:16.668Z,64.10
2022-11-30T02:00:49.616Z,66.32
2022-11-30T02:02:29.050Z,61.20
2022-11-30T02:04:07.400Z,58.92
2022-11-30T02:05:42.156Z,55.63
2022-11-30T02:07:15.098Z,65.38
2022-11-30T02:08:46.933Z,62.45
2022-11-30T02:10:24.573Z,69.25
2022-11-30T02:11:56.919Z,67.10
2022-11-30T02:13:42.706Z,61.22
2022-11-30T02:15:22.124Z,58.15
2022-11-30T02:17:02.509Z,63.47
2022-11-30T02:18:43.651Z,59.53
2022-11-30T02:20:42.515Z,67.53
2022-11-30T02:22:24.879Z,67.85
2022-11-30T02:24:22.729Z,65.20
2022-11-30T02:26:05.248Z,72.25
2022-11-30T02:27:57.244Z,66.10
2022-11-30T02:29:33.578Z,70.80
2022-11-30T02:31:11.147Z,61.35
2022-11-30T02:32:47.891Z,67.30
2022-11-30T02:34:22.453Z,66.35
2022-11-30T02:35:57.041Z,70.10
2022-11-30T02:37:30.958Z,66.78
2022-11-30T02:39:04.898Z,65.57
2022-11-30T02:40:37.784Z,65.53
2022-11-30T02:42:12.434Z,57.40
2022-11-30T02:43:45.847Z,65.90
2022-11-30T02:45:24.609Z,60.10
2022-11-30T02:47:14.658Z,59.53
2022-11-30T02:48:51.342Z,61.75
2022-11-30T02:50:29.474Z,63.67
2022-11-30T02:52:04.129Z,70.95
2022-11-30T02:53:37.609Z,67.22
2022-11-30T02:55:12.463Z,65.85
2022-11-30T02:56:44.243Z,61.38
2022-11-30T02:58:18.319Z,61.78
2022-11-30T02:59:51.363Z,63.00
2022-11-30T03:01:25.229Z,61.60
2022-11-30T03:02:58.060Z,57.03
2022-11-30T03:04:30.797Z,60.38
2022-11-30T03:06:03.560Z,58.80
2022-11-30T03:07:36.496Z,58.17
2022-11-30T03:09:09.703Z,64.55
2022-11-30T03:10:42.407Z,54.50
2022-11-30T03:12:15.134Z,60.00
2022-11-30T03:13:46.907Z,60.92
2022-11-30T03:15:19.660Z,54.20
2022-11-30T03:16:53.742Z,57.13
2022-11-30T03:18:26.475Z,65.13
2022-11-30T03:19:59.300Z,53.50
2022-11-30T03:21:32.111Z,60.55
2022-11-30T03:23:04.839Z,53.22
2022-11-30T03:24:36.611Z,70.03
2022-11-30T03:26:09.934Z,60.92
2022-11-30T03:27:42.663Z,58.45
2022-11-30T03:29:15.442Z,55.85
2022-11-30T03:30:49.835Z,66.57
2022-11-30T03:32:24.043Z,67.18
2022-11-30T03:33:56.834Z,56.50
2022-11-30T03:35:29.571Z,52.40
2022-11-30T03:37:02.335Z,57.25
2022-11-30T03:38:34.703Z,57.28
2022-11-30T03:40:09.045Z,61.08
2022-11-30T03:41:41.788Z,53.17
2022-11-30T03:43:14.611Z,60.65
2022-11-30T03:44:47.592Z,52.70
2022-11-30T03:46:20.607Z,55.72
2022-11-30T03:47:53.947Z,56.83
2022-11-30T03:49:27.159Z,56.20
2022-11-30T03:50:59.235Z,56.72
2022-11-30T03:52:32.029Z,52.00
2022-11-30T03:54:05.211Z,56.95
2022-11-30T03:55:36.968Z,61.65
2022-11-30T03:57:09.742Z,59.50
2022-11-30T03:58:42.715Z,56.80
2022-11-30T04:00:16.769Z,54.20
2022-11-30T04:01:49.542Z,55.85
2022-11-30T04:03:22.766Z,53.13
2022-11-30T04:04:55.527Z,58.75
2022-11-30T04:06:28.292Z,63.85
2022-11-30T04:08:00.109Z,64.25
2022-11-30T04:09:32.885Z,62.90
2022-11-30T04:11:07.087Z,56.85
2022-11-30T04:12:38.877Z,57.28
2022-11-30T04:14:11.618Z,55.28
2022-11-30T04:15:43.626Z,55.10
2022-11-30T04:17:16.512Z,52.22
2022-11-30T04:18:50.605Z,60.45
2022-11-30T04:20:22.399Z,57.15
2022-11-30T04:21:55.132Z,54.20
2022-11-30T04:23:31.361Z,60.45
2022-11-30T04:25:04.399Z,67.43
2022-11-30T04:26:36.238Z,62.40
2022-11-30T04:28:09.667Z,56.30
2022-11-30T04:29:42.538Z,64.97
2022-11-30T04:31:15.340Z,63.05
2022-11-30T04:32:48.272Z,66.30
2022-11-30T04:34:22.344Z,66.32
2022-11-30T04:35:57.201Z,55.58
2022-11-30T04:37:29.947Z,66.43
2022-11-30T04:39:02.700Z,61.70
2022-11-30T04:40:34.540Z,63.70
2022-11-30T04:42:07.443Z,64.20
2022-11-30T04:43:40.199Z,59.55
2022-11-30T04:45:13.481Z,59.15
2022-11-30T04:46:46.239Z,57.42
2022-11-30T04:48:20.066Z,55.58
2022-11-30T04:49:53.216Z,61.28
2022-11-30T04:51:25.958Z,52.97
2022-11-30T04:52:57.867Z,58.90
2022-11-30T04:54:30.591Z,69.47
2022-11-30T04:56:07.747Z,55.67
2022-11-30T04:57:40.630Z,58.05
2022-11-30T04:59:13.576Z,70.82
2022-11-30T05:00:46.367Z,60.70
2022-11-30T05:02:19.073Z,59.35
2022-11-30T05:03:51.792Z,55.67
2022-11-30T05:05:25.848Z,63.72
2022-11-30T05:06:58.663Z,68.88
2022-11-30T05:08:31.464Z,65.05
2022-11-30T05:10:04.438Z,67.13
2022-11-30T05:11:37.204Z,58.72
2022-11-30T05:13:10.172Z,67.18
2022-11-30T05:14:42.904Z,64.97
2022-11-30T05:16:15.660Z,65.40
2022-11-30T05:17:48.815Z,63.50
2022-11-30T05:19:21.554Z,68.70
2022-11-30T05:20:55.632Z,74.75
2022-11-30T05:22:28.374Z,78.10
2022-11-30T05:24:01.191Z,66.18
2022-11-30T05:25:34.015Z,75.30
2022-11-30T05:27:12.192Z,65.72
2022-11-30T05:28:47.166Z,65.90
2022-11-30T05:30:19.165Z,64.90
2022-11-30T05:31:51.951Z,62.45
2022-11-30T05:33:24.694Z,61.90
2022-11-30T05:34:56.689Z,63.28
2022-11-30T05:36:30.931Z,69.85
2022-11-30T05:38:04.131Z,60.13
2022-11-30T05:39:36.845Z,68.28
2022-11-30T05:41:09.567Z,73.13
2022-11-30T05:42:42.312Z,67.68
2022-11-30T05:44:14.997Z,67.63
2022-11-30T05:45:47.714Z,66.25
2022-11-30T05:47:20.462Z,63.63
2022-11-30T05:48:53.250Z,56.80
2022-11-30T05:50:26.019Z,61.90
2022-11-30T05:52:00.109Z,62.50
2022-11-30T05:53:33.740Z,62.55
2022-11-30T05:55:07.170Z,60.05
2022-11-30T05:56:39.901Z,63.40
2022-11-30T05:58:12.684Z,62.58
2022-11-30T05:59:45.420Z,65.82
2022-11-30T06:01:19.868Z,63.65
2022-11-30T06:02:57.219Z,60.58
2022-11-30T06:04:30.301Z,59.17
2022-11-30T06:06:03.306Z,59.50
2022-11-30T06:07:37.470Z,58.30
2022-11-30T06:09:10.455Z,58.42
2022-11-30T06:10:43.279Z,69.97
2022-11-30T06:12:15.995Z,60.38
2022-11-30T06:13:48.752Z,54.85
2022-11-30T06:15:21.482Z,59.50
2022-11-30T06:16:54.262Z,57.85
2022-11-30T06:18:27.147Z,60.70
2022-11-30T06:19:59.869Z,61.65
2022-11-30T06:21:32.643Z,61.13
2022-11-30T06:23:06.892Z,61.75
2022-11-30T06:24:38.879Z,57.90
2022-11-30T06:26:13.483Z,72.55
2022-11-30T06:27:46.202Z,65.32
2022-11-30T06:29:18.937Z,61.17
2022-11-30T06:30:52.123Z,71.05
2022-11-30T06:32:24.890Z,71.43
2022-11-30T06:33:58.335Z,71.25
2022-11-30T06:35:31.076Z,61.38
2022-11-30T06:37:03.807Z,68.05
2022-11-30T06:38:38.054Z,72.13
2022-11-30T06:40:13.944Z,71.55
2022-11-30T06:41:51.496Z,77.53
2022-11-30T06:43:26.998Z,75.78
2022-11-30T06:44:59.983Z,78.30
2022-11-30T06:46:33.081Z,91.07
2022-11-30T06:48:06.199Z,85.35
2022-11-30T06:49:39.491Z,79.30
2022-11-30T06:51:12.298Z,74.40
2022-11-30T06:52:45.045Z,71.47
2022-11-30T06:54:19.096Z,71.53
2022-11-30T06:55:51.915Z,68.90
2022-11-30T06:57:28.063Z,70.82
2022-11-30T06:59:00.779Z,65.30
2022-11-30T07:00:33.653Z,71.40
2022-11-30T07:02:10.708Z,62.60
2022-11-30T07:03:45.861Z,59.15
2022-11-30T07:05:18.701Z,58.30
2022-11-30T07:06:51.439Z,66.85
2022-11-30T07:08:24.233Z,61.72
2022-11-30T07:09:58.532Z,54.10
2022-11-30T07:11:31.848Z,59.67
2022-11-30T07:13:04.557Z,56.35
2022-11-30T07:14:37.338Z,60.47
2022-11-30T07:16:12.143Z,55.08
2022-11-30T07:17:44.902Z,66.80
2022-11-30T07:19:17.737Z,62.30
2022-11-30T07:20:50.617Z,64.78
2022-11-30T07:22:23.332Z,63.80
2022-11-30T07:24:10.018Z,66.32
2022-11-30T07:26:01.745Z,72.35
2022-11-30T07:27:34.454Z,74.18
2022-11-30T07:29:07.187Z,61.80
2022-11-30T07:30:39.881Z,62.95
2022-11-30T07:32:12.685Z,70.63
2022-11-30T07:33:45.677Z,62.88
2022-11-30T07:35:18.421Z,66.35
2022-11-30T07:36:51.148Z,64.85
2022-11-30T07:38:23.887Z,61.67
2022-11-30T07:39:56.796Z,65.25
2022-11-30T07:41:30.935Z,64.75
2022-11-30T07:43:03.707Z,63.67
2022-11-30T07:44:36.435Z,69.40
2022-11-30T07:46:12.404Z,58.33
2022-11-30T07:47:45.159Z,58.97
2022-11-30T07:49:17.913Z,63.40
2022-11-30T07:50:49.899Z,61.70
2022-11-30T07:52:22.618Z,65.68
2022-11-30T07:53:57.029Z,72.30
2022-11-30T07:55:29.751Z,67.03
2022-11-30T07:57:03.946Z,59.25
2022-11-30T07:58:37.002Z,63.00
2022-11-30T08:00:10.816Z,53.83
2022-11-30T08:01:43.673Z,55.97
2022-11-30T08:03:16.477Z,58.70
2022-11-30T08:04:50.942Z,52.05
2022-11-30T08:06:26.307Z,69.70
2022-11-30T08:07:58.126Z,61.53
2022-11-30T08:09:30.961Z,66.57
2022-11-30T08:11:04.990Z,63.60
2022-11-30T08:12:39.066Z,62.47
2022-11-30T08:14:13.519Z,58.03
2022-11-30T08:15:46.231Z,57.83
2022-11-30T08:17:18.948Z,62.35
2022-11-30T08:18:52.213Z,64.82
2022-11-30T08:20:25.054Z,60.63
2022-11-30T08:21:57.930Z,67.25
2022-11-30T08:23:31.498Z,55.70
2022-11-30T08:25:04.692Z,53.75
2022-11-30T08:26:37.412Z,55.47
2022-11-30T08:28:11.465Z,52.25
2022-11-30T08:29:44.191Z,55.83
2022-11-30T08:31:18.901Z,52.92
2022-11-30T08:32:51.819Z,55.85
2022-11-30T08:34:26.211Z,53.20
2022-11-30T08:36:07.131Z,48.20
2022-11-30T08:37:39.883Z,53.53
2022-11-30T08:39:14.116Z,51.00
2022-11-30T08:40:46.816Z,46.97
2022-11-30T08:42:19.568Z,52.20
2022-11-30T08:43:53.995Z,55.30
2022-11-30T08:45:27.022Z,53.53
2022-11-30T08:46:59.788Z,51.03
2022-11-30T08:48:32.530Z,55.00
2022-11-30T08:50:06.102Z,52.80
2022-11-30T08:52:15.286Z,54.35
2022-11-30T08:53:35.091Z,52.80
2022-11-30T08:55:09.543Z,51.28
2022-11-30T08:56:42.393Z,51.63
2022-11-30T08:58:15.116Z,50.13
2022-11-30T08:59:49.266Z,53.80
2022-11-30T09:01:27.095Z,50.03
2022-11-30T09:03:02.649Z,47.03
2022-11-30T09:04:35.496Z,45.60
2022-11-30T09:06:12.683Z,53.20
2022-11-30T09:07:45.487Z,48.05
2022-11-30T09:09:18.283Z,49.53
2022-11-30T09:10:52.021Z,48.00
2022-11-30T09:12:24.762Z,50.97
2022-11-30T09:13:59.149Z,48.15
2022-11-30T09:15:33.609Z,45.92
2022-11-30T09:17:06.501Z,50.70
2022-11-30T09:18:40.264Z,45.50
2022-11-30T09:20:13.686Z,45.67
2022-11-30T09:21:51.596Z,46.08
2022-11-30T09:23:24.819Z,48.67
2022-11-30T09:24:57.537Z,50.55
2022-11-30T09:26:30.575Z,47.17
2022-11-30T09:28:06.781Z,45.25
2022-11-30T09:29:42.600Z,48.38
2022-11-30T09:31:18.732Z,39.85
2022-11-30T09:32:51.571Z,42.05
2022-11-30T09:34:24.295Z,41.50
2022-11-30T09:35:57.918Z,39.67
2022-11-30T09:37:31.115Z,41.15
2022-11-30T09:39:04.010Z,38.15
2022-11-30T09:40:39.600Z,45.88
2022-11-30T09:42:28.188Z,35.80
2022-11-30T09:44:10.279Z,38.60
2022-11-30T09:45:51.345Z,36.47
2022-11-30T09:47:38.662Z,36.88
2022-11-30T09:49:18.754Z,39.03
2022-11-30T09:50:53.106Z,38.28
2022-11-30T09:52:33.527Z,38.80
2022-11-30T09:54:12.521Z,35.78
2022-11-30T09:55:46.067Z,37.42
2022-11-30T09:57:26.190Z,38.38
2022-11-30T09:59:03.455Z,35.05
2022-11-30T10:00:36.909Z,35.65
2022-11-30T10:02:16.888Z,35.30
2022-11-30T10:03:51.513Z,34.80
2022-11-30T10:05:27.795Z,35.63
2022-11-30T10:07:12.025Z,32.67
2022-11-30T10:08:53.172Z,30.17
2022-11-30T10:10:33.741Z,32.67
2022-11-30T10:12:14.111Z,28.52
2022-11-30T10:14:12.922Z,34.13
2022-11-30T10:15:55.939Z,32.13
2022-11-30T10:17:43.430Z,31.77
2022-11-30T10:19:28.593Z,34.17
2022-11-30T10:21:12.319Z,31.08
2022-11-30T10:23:03.501Z,31.75
2022-11-30T10:24:53.342Z,31.65
2022-11-30T10:26:32.519Z,32.15
2022-11-30T10:28:45.065Z,33.00
2022-11-30T10:30:14.909Z,35.92
2022-11-30T10:31:49.600Z,33.95
2022-11-30T10:33:39.172Z,35.97
2022-11-30T10:35:22.588Z,35.80
2022-11-30T10:37:02.292Z,35.63
2022-11-30T10:38:40.399Z,37.13
2022-11-30T10:40:17.155Z,41.72
2022-11-30T10:41:53.533Z,40.10
2022-11-30T10:43:32.782Z,36.20
2022-11-30T10:45:10.187Z,39.00
2022-11-30T10:46:51.494Z,41.45
2022-11-30T10:48:32.180Z,40.22
2022-11-30T10:50:07.282Z,41.45
2022-11-30T10:51:45.326Z,38.33
2022-11-30T10:53:18.215Z,62.45
2022-11-30T10:54:54.602Z,42.35
2022-11-30T10:56:28.716Z,44.83
2022-11-30T10:58:08.116Z,61.67
2022-11-30T10:59:45.713Z,42.45
2022-11-30T11:01:34.297Z,40.33
2022-11-30T11:03:24.427Z,41.58
2022-11-30T11:05:16.701Z,41.40
2022-11-30T11:06:55.056Z,42.63
2022-11-30T11:08:28.571Z,41.95
2022-11-30T11:10:02.663Z,43.33
2022-11-30T11:11:38.752Z,52.25
2022-11-30T11:13:17.452Z,54.67
2022-11-30T11:14:50.159Z,51.33
2022-11-30T11:16:22.974Z,42.47
2022-11-30T11:18:20.693Z,46.20
2022-11-30T11:19:53.425Z,37.72
2022-11-30T11:21:26.270Z,38.58
2022-11-30T11:23:00.575Z,37.95
2022-11-30T11:24:34.637Z,40.45
2022-11-30T11:26:09.245Z,43.53
2022-11-30T11:27:45.007Z,40.08
2022-11-30T11:29:31.340Z,42.10
2022-11-30T11:31:17.859Z,41.60
2022-11-30T11:32:59.956Z,80.93
2022-11-30T11:34:35.438Z,39.67
2022-11-30T11:36:15.803Z,40.15
2022-11-30T11:37:52.727Z,40.95
2022-11-30T11:39:28.134Z,37.53
2022-11-30T11:41:03.000Z,40.03
2022-11-30T11:42:38.500Z,36.17
2022-11-30T11:44:22.941Z,40.38
2022-11-30T11:45:58.594Z,37.90
2022-11-30T11:47:40.257Z,42.05
2022-11-30T11:49:22.186Z,38.50
2022-11-30T11:51:06.635Z,43.85
2022-11-30T11:52:40.264Z,40.67
2022-11-30T11:54:24.150Z,40.50
2022-11-30T11:56:03.632Z,41.40
2022-11-30T11:57:41.247Z,39.45
2022-11-30T11:59:19.618Z,43.22
2022-11-30T12:01:05.772Z,39.92
2022-11-30T12:02:54.301Z,39.53
2022-11-30T12:04:47.005Z,40.08
2022-11-30T12:06:20.527Z,37.63
2022-11-30T12:08:03.596Z,40.47
2022-11-30T12:09:41.738Z,40.70
2022-11-30T12:11:20.020Z,45.25
2022-11-30T12:12:55.049Z,40.38
2022-11-30T12:14:29.011Z,31.27
2022-11-30T12:16:10.391Z,37.67
2022-11-30T12:17:53.904Z,44.15
2022-11-30T12:19:33.434Z,48.92
2022-11-30T12:21:14.272Z,49.65
2022-11-30T12:23:05.823Z,54.35
2022-11-30T12:25:05.519Z,52.70
2022-11-30T12:26:46.136Z,52.28
2022-11-30T12:28:25.987Z,54.92
2022-11-30T12:30:09.854Z,52.20
2022-11-30T12:31:56.571Z,55.95
2022-11-30T12:33:43.968Z,53.95
2022-11-30T12:35:30.425Z,51.03
2022-11-30T12:37:11.825Z,53.25
2022-11-30T12:38:49.930Z,50.58
2022-11-30T12:40:32.938Z,48.92
2022-11-30T12:42:15.213Z,54.70
2022-11-30T12:43:54.988Z,54.80
2022-11-30T12:45:35.591Z,44.45
2022-11-30T12:47:22.023Z,50.47
2022-11-30T12:49:09.441Z,55.92
2022-11-30T12:50:52.595Z,51.17
2022-11-30T12:52:35.121Z,52.95
2022-11-30T12:54:16.238Z,50.95
2022-11-30T12:56:00.091Z,48.70
2022-11-30T12:57:38.684Z,50.53
2022-11-30T12:59:23.490Z,48.17
2022-11-30T13:01:11.031Z,47.33
2022-11-30T13:03:10.612Z,47.65
2022-11-30T13:04:47.010Z,51.45
2022-11-30T13:06:24.214Z,46.33
2022-11-30T13:08:03.927Z,46.92
2022-11-30T13:09:42.008Z,43.28
2022-11-30T13:11:18.862Z,45.08
2022-11-30T13:12:54.672Z,49.95
2022-11-30T13:14:30.196Z,45.78
2022-11-30T13:16:09.109Z,44.67
2022-11-30T13:17:41.970Z,45.75
2022-11-30T13:19:33.114Z,44.72
2022-11-30T13:21:16.184Z,44.40
2022-11-30T13:22:54.291Z,43.25
2022-11-30T13:24:30.835Z,50.47
2022-11-30T13:26:10.176Z,48.72
2022-11-30T13:27:52.559Z,48.78
2022-11-30T13:29:52.135Z,48.35
2022-11-30T13:31:29.391Z,49.03
2022-11-30T13:33:35.697Z,48.30
2022-11-30T13:35:43.450Z,48.63
2022-11-30T13:37:24.400Z,51.38
2022-11-30T13:39:31.321Z,50.35
2022-11-30T13:41:06.340Z,46.38
2022-11-30T13:42:46.144Z,50.83
2022-11-30T13:44:32.599Z,50.35
2022-11-30T13:46:15.931Z,52.33
2022-11-30T13:47:51.088Z,48.67
2022-11-30T13:49:27.332Z,49.75
2022-11-30T13:51:00.562Z,45.80
2022-11-30T13:53:19.257Z,47.88
2022-11-30T13:54:54.465Z,38.75
2022-11-30T13:56:35.856Z,40.45
2022-11-30T13:58:09.858Z,40.95
2022-11-30T13:59:49.591Z,55.38
2022-11-30T14:01:27.597Z,57.00
2022-11-30T14:03:24.230Z,64.75
2022-11-30T14:05:26.460Z,63.55
2022-11-30T14:07:00.655Z,65.22
2022-11-30T14:08:38.863Z,64.93
2022-11-30T14:10:28.874Z,68.97
2022-11-30T14:12:40.784Z,66.15
2022-11-30T14:14:46.451Z,67.50
2022-11-30T14:16:27.181Z,72.10
2022-11-30T14:18:00.349Z,68.80
2022-11-30T14:19:33.148Z,72.93
2022-11-30T14:21:20.644Z,65.97
2022-11-30T14:22:53.604Z,68.55
2022-11-30T14:24:26.916Z,70.75
2022-11-30T14:26:10.235Z,66.32
2022-11-30T14:27:44.797Z,73.80
2022-11-30T14:29:20.263Z,70.53
2022-11-30T14:30:56.948Z,77.47
2022-11-30T14:32:37.815Z,68.78
2022-11-30T14:34:16.416Z,68.85
2022-11-30T14:35:55.010Z,62.22
2022-11-30T14:37:33.127Z,68.45
2022-11-30T14:39:05.996Z,67.50
2022-11-30T14:40:38.810Z,65.85
2022-11-30T14:42:21.568Z,62.47
2022-11-30T14:44:07.016Z,62.33
2022-11-30T14:45:39.788Z,59.80
2022-11-30T14:47:26.454Z,58.60
2022-11-30T14:49:07.838Z,54.80
2022-11-30T14:50:44.814Z,60.20
2022-11-30T14:52:32.289Z,58.35
2022-11-30T14:54:31.739Z,56.33
2022-11-30T14:56:13.168Z,53.03
2022-11-30T14:57:53.873Z,50.25
2022-11-30T14:59:41.230Z,49.50
2022-11-30T15:01:19.781Z,45.13
2022-11-30T15:02:53.965Z,50.45
2022-11-30T15:04:28.262Z,45.33
2022-11-30T15:06:03.196Z,47.00
2022-11-30T15:07:37.502Z,41.05
2022-11-30T15:09:17.108Z,45.55
2022-11-30T15:10:50.473Z,43.05
2022-11-30T15:12:25.703Z,41.92
2022-11-30T15:14:08.791Z,43.15
2022-11-30T15:15:51.543Z,41.78
2022-11-30T15:17:24.352Z,44.00
2022-11-30T15:19:00.292Z,42.38
2022-11-30T15:20:40.339Z,41.10
2022-11-30T15:22:22.824Z,38.35
2022-11-30T15:23:57.125Z,37.83
2022-11-30T15:25:36.175Z,43.35
2022-11-30T15:27:14.635Z,33.78
2022-11-30T15:28:55.193Z,40.60
2022-11-30T15:30:28.571Z,38.38
2022-11-30T15:32:04.161Z,35.83
2022-11-30T15:33:43.734Z,38.90
2022-11-30T15:35:24.018Z,39.42
2022-11-30T15:36:59.112Z,41.72
2022-11-30T15:38:31.871Z,37.35
2022-11-30T15:40:07.614Z,40.88
2022-11-30T15:41:40.364Z,40.80
2022-11-30T15:43:22.162Z,41.00
2022-11-30T15:45:11.889Z,37.45
2022-11-30T15:46:57.715Z,39.55
2022-11-30T15:48:32.922Z,42.90
2022-11-30T15:50:36.997Z,40.53
2022-11-30T15:52:18.365Z,39.00
2022-11-30T15:53:53.055Z,42.35
2022-11-30T15:55:42.008Z,40.97
2022-11-30T15:57:15.159Z,36.97
2022-11-30T15:59:02.433Z,39.78
2022-11-30T16:00:35.190Z,37.83
2022-11-30T16:02:23.766Z,38.83
2022-11-30T16:04:05.838Z,34.72
2022-11-30T16:05:57.053Z,39.28
2022-11-30T16:07:33.574Z,36.58
2022-11-30T16:09:18.543Z,37.90
2022-11-30T16:10:51.389Z,32.78
2022-11-30T16:12:29.376Z,34.47
2022-11-30T16:14:02.095Z,33.85
2022-11-30T16:15:36.639Z,33.50
2022-11-30T16:17:11.571Z,32.83
2022-11-30T16:18:44.337Z,34.90
2022-11-30T16:20:17.670Z,32.78
2022-11-30T16:21:50.964Z,34.47
2022-11-30T16:23:25.916Z,30.42
2022-11-30T16:24:58.622Z,32.47
2022-11-30T16:28:24.298Z,33.78
2022-11-30T16:29:57.252Z,30.55
2022-11-30T16:31:30.269Z,28.25
2022-11-30T16:33:04.241Z,26.65
2022-11-30T16:34:36.983Z,28.20
2022-11-30T16:36:14.109Z,27.52
2022-11-30T16:37:46.862Z,28.70
2022-11-30T16:39:21.643Z,27.70
2022-11-30T16:40:55.596Z,29.65
2022-11-30T16:42:28.346Z,30.30
2022-11-30T16:44:01.139Z,33.28
2022-11-30T16:45:36.814Z,32.45
2022-11-30T16:47:09.586Z,32.78
2022-11-30T16:48:42.506Z,32.20
2022-11-30T16:50:15.667Z,29.42
2022-11-30T16:51:48.828Z,30.30
2022-11-30T16:53:24.887Z,27.73
2022-11-30T16:55:01.529Z,29.67
2022-11-30T16:56:34.285Z,27.50
2022-11-30T16:58:07.011Z,31.50
2022-11-30T16:59:39.712Z,30.88
2022-11-30T17:01:16.315Z,34.53
2022-11-30T17:02:56.766Z,34.50
2022-11-30T17:04:30.580Z,33.08
2022-11-30T17:06:03.338Z,35.13
2022-11-30T17:07:37.701Z,34.60
2022-11-30T17:09:13.357Z,38.45
2022-11-30T17:10:51.572Z,36.17
2022-11-30T17:12:24.321Z,35.25
2022-11-30T17:13:57.079Z,38.03
2022-11-30T17:15:29.931Z,36.70
2022-11-30T17:17:02.750Z,36.10
2022-11-30T17:18:35.538Z,35.67
2022-11-30T17:20:09.350Z,37.50
2022-11-30T17:21:44.357Z,41.65
2022-11-30T17:23:17.132Z,39.28
2022-11-30T17:24:50.048Z,40.05
2022-11-30T17:26:24.225Z,41.40
2022-11-30T17:27:56.967Z,40.10
2022-11-30T17:29:30.014Z,45.35
2022-11-30T17:31:02.857Z,40.53
2022-11-30T17:32:35.788Z,42.50
2022-11-30T17:34:09.319Z,42.03
2022-11-30T17:35:42.223Z,43.33
2022-11-30T17:37:15.067Z,46.90
2022-11-30T17:38:47.805Z,47.45
2022-11-30T17:40:20.634Z,48.25
2022-11-30T17:41:54.800Z,43.47
2022-11-30T17:43:31.708Z,43.55
2022-11-30T17:45:04.960Z,40.63
2022-11-30T17:46:38.922Z,36.67
2022-11-30T17:48:11.815Z,31.50
2022-11-30T17:49:44.579Z,37.75
2022-11-30T17:51:17.797Z,34.10
2022-11-30T17:52:50.561Z,32.85
2022-11-30T17:54:23.290Z,32.35
2022-11-30T17:56:03.175Z,36.33
2022-11-30T17:57:39.475Z,38.85
2022-11-30T17:59:12.379Z,36.85
2022-11-30T18:00:45.102Z,37.75
2022-11-30T18:02:17.904Z,40.13
2022-11-30T18:03:51.988Z,37.30
2022-11-30T18:05:24.814Z,35.15
2022-11-30T18:06:57.555Z,38.88
2022-11-30T18:08:32.878Z,34.40
2022-11-30T18:10:06.603Z,37.10
2022-11-30T18:11:39.718Z,37.47
2022-11-30T18:13:13.836Z,37.75
2022-11-30T18:14:47.080Z,35.67
2022-11-30T18:16:21.980Z,38.33
2022-11-30T18:17:56.128Z,38.83
2022-11-30T18:19:28.886Z,37.88
2022-11-30T18:21:04.782Z,36.85
2022-11-30T18:22:37.514Z,25.35
2022-11-30T18:24:11.521Z,24.08
2022-11-30T18:25:44.233Z,21.58
2022-11-30T18:27:17.012Z,27.98
2022-11-30T18:28:54.754Z,20.48
2022-11-30T18:30:27.782Z,25.27
2022-11-30T18:32:00.566Z,24.70
2022-11-30T18:33:33.522Z,29.08
2022-11-30T18:35:07.967Z,26.15
2022-11-30T18:36:40.811Z,24.60
2022-11-30T18:38:15.553Z,26.92
2022-11-30T18:39:48.292Z,29.13
2022-11-30T18:41:21.048Z,28.55
2022-11-30T18:42:53.825Z,34.85
2022-11-30T18:44:27.988Z,32.67
2022-11-30T18:46:03.817Z,33.47
2022-11-30T18:47:36.631Z,32.10
2022-11-30T18:49:09.395Z,34.22
2022-11-30T18:50:42.127Z,36.53
2022-11-30T18:52:14.863Z,39.15
2022-11-30T18:53:48.313Z,30.80
2022-11-30T18:55:21.312Z,34.00
2022-11-30T18:56:54.088Z,34.42
2022-11-30T18:58:26.843Z,32.20
2022-11-30T19:00:01.156Z,39.25
2022-11-30T19:01:34.280Z,34.55
2022-11-30T19:03:07.076Z,34.63
2022-11-30T19:04:39.883Z,38.83
2022-11-30T19:06:12.721Z,39.20
2022-11-30T19:07:45.489Z,37.20
2022-11-30T19:09:20.009Z,37.67
2022-11-30T19:10:52.723Z,35.30
2022-11-30T19:12:25.450Z,39.90
2022-11-30T19:14:00.027Z,38.70
2022-11-30T19:15:38.229Z,37.70
2022-11-30T19:17:10.982Z,38.33
2022-11-30T19:18:44.832Z,38.40
2022-11-30T19:20:18.628Z,39.22
2022-11-30T19:21:51.475Z,37.05
2022-11-30T19:23:24.463Z,37.92
2022-11-30T19:24:57.166Z,37.03
2022-11-30T19:26:29.919Z,35.60
2022-11-30T19:28:02.726Z,38.40
2022-11-30T19:29:35.464Z,38.58
2022-11-30T19:31:11.773Z,35.92
2022-11-30T19:32:44.588Z,37.67
2022-11-30T19:34:17.583Z,39.80
2022-11-30T19:35:50.363Z,42.63
2022-11-30T19:37:23.520Z,40.28
2022-11-30T19:38:58.267Z,39.42
2022-11-30T19:40:31.218Z,41.15
2022-11-30T19:42:04.457Z,40.55
2022-11-30T19:43:38.155Z,38.50
2022-11-30T19:45:11.625Z,39.40
2022-11-30T19:46:45.913Z,34.47
2022-11-30T19:48:18.683Z,39.08
2022-11-30T19:49:51.423Z,38.47
2022-11-30T19:51:24.541Z,40.13
2022-11-30T19:52:58.404Z,37.72
2022-11-30T19:54:31.148Z,40.55
2022-11-30T19:56:07.656Z,39.70
2022-11-30T19:57:40.392Z,35.78
2022-11-30T19:59:13.143Z,35.67
2022-11-30T20:00:46.728Z,37.05
2022-11-30T20:02:20.931Z,32.45
2022-11-30T20:03:55.105Z,38.40
2022-11-30T20:05:27.981Z,34.15
2022-11-30T20:07:01.553Z,35.53
2022-11-30T20:08:34.390Z,35.90
2022-11-30T20:10:09.814Z,35.88
2022-11-30T20:11:42.638Z,39.00
2022-11-30T20:13:15.383Z,33.90
2022-11-30T20:14:50.231Z,37.55
2022-11-30T20:16:24.211Z,37.95
2022-11-30T20:17:58.460Z,39.17
2022-11-30T20:19:31.627Z,40.85
2022-11-30T20:21:11.891Z,39.78
2022-11-30T20:22:44.643Z,39.28
2022-11-30T20:24:17.354Z,42.50
2022-11-30T20:25:50.087Z,42.97
2022-11-30T20:27:24.664Z,40.53
2022-11-30T20:28:58.271Z,46.88
2022-11-30T20:30:31.078Z,43.67
2022-11-30T20:32:03.902Z,47.05
2022-11-30T20:33:38.306Z,42.03
2022-11-30T20:35:11.741Z,42.83
2022-11-30T20:36:45.088Z,43.42
2022-11-30T20:38:17.815Z,45.47
2022-11-30T20:39:50.550Z,46.30